Columbus Metropolitan Airport
KCSG : rendu visible

Aérodrome :











RETROUVEZ-NOUS SUR...

 
LOGIN :

S'inscrire | Disclaimer

   EN    FR    IT 

 









Légende :    VFR   VFR Marginal   IFR   IFR Intensif   IFR Très Intensif
Visi : 
Plafond : 
>= 8 km
>= 3000ft
5 à 8 km
1000 à 3000 ft
1500m à 5 km
500 à 1000 ft
800 à 1500m
200 à 500 ft
< 800m
< 200 ft
Symboles :   Orages  Brouillard  Fortes neiges  Fortes précipitations  Vent > 20 kt






- Altitude de l'aérodrome : 397 ft
- Code IATA : CSG


KCSG - Columbus Metropolitan

DERNIER METAR :
  • 241551Z 24006KT 5SM -RA BR BKN038 OVC075 09/08 A3006 RMK AO2 SLP179 P0006 T00940078

METARs EXPIRÉS :
  • 241451Z 11004KT 5SM -RA BR BKN035 BKN046 OVC070 09/07 A3007 RMK AO2 SLP182 P0009 60019 T00890067 53004
  • 241351Z 08005KT 4SM -RA FEW050 BKN080 OVC100 09/06 A3005 RMK AO2 SLP175 P0007 T00890061

TAF KCSG
Valide du 24 à 14h jusqu'au 25 à 12h UTC


241356Z 2414/2512 12004KT 4SM -RA BKN025 OVC035
FM241600 15004KT 4SM -SHRA OVC018
FM250100 16007KT 4SM -SHRA BR BKN006 OVC015
FM250800 24006KT 4SM -SHRA BR OVC008



MET'MAP, la Météo Aéronautique d'un coup d'oeil ! - Copyright ORBIFLY Décembre 2007 - Disclaimer

ORBIFLY MET'MAP TEAM :

Programmation & Développement : Alexandra Zaïnal
Sur une idée originale de : Baudouin d'Aumeries
Assistance à la programmation : Marc-Olivier Méhu
Soutien technique & logistique : Manuel Goepfert

Contact : metmap@orbifly.com




SOURCES & CREDITS :

   NOAA       Earth
Advisory